createdAt,value
2023-01-30T00:02:21.438Z,21.15
2023-01-30T00:07:22.301Z,20.42
2023-01-30T00:12:31.728Z,17.10
2023-01-30T00:17:29.015Z,22.87
2023-01-30T00:22:26.640Z,21.60
2023-01-30T00:27:26.959Z,16.70
2023-01-30T00:32:26.677Z,24.80
2023-01-30T00:37:24.096Z,24.75
2023-01-30T00:42:42.591Z,22.17
2023-01-30T00:47:39.933Z,25.10
2023-01-30T00:52:37.864Z,22.77
2023-01-30T00:57:35.091Z,30.25
2023-01-30T01:02:32.435Z,34.13
2023-01-30T01:07:29.874Z,24.17
2023-01-30T01:12:27.293Z,23.35
2023-01-30T01:17:24.827Z,27.40
2023-01-30T01:22:22.457Z,27.35
2023-01-30T01:27:20.041Z,18.98
2023-01-30T01:32:17.505Z,22.30
2023-01-30T01:37:14.651Z,27.10
2023-01-30T01:42:11.992Z,20.77
2023-01-30T01:47:10.014Z,25.15
2023-01-30T01:52:16.200Z,17.90
2023-01-30T01:57:25.305Z,24.55
2023-01-30T02:02:22.932Z,19.67
2023-01-30T02:07:21.557Z,21.65
2023-01-30T02:12:18.897Z,23.75
2023-01-30T02:17:16.309Z,26.33
2023-01-30T02:22:32.093Z,18.13
2023-01-30T02:27:44.228Z,10.43
2023-01-30T02:32:59.967Z,16.42
2023-01-30T02:38:24.572Z,28.08
2023-01-30T02:43:34.615Z,18.42
2023-01-30T02:48:44.951Z,18.30
2023-01-30T02:53:42.420Z,14.02
2023-01-30T02:58:45.999Z,8.32
2023-01-30T03:04:26.632Z,7.32
2023-01-30T03:09:52.847Z,11.75
2023-01-30T03:15:13.989Z,22.77
2023-01-30T03:20:11.948Z,16.27
2023-01-30T03:25:11.749Z,20.67
2023-01-30T03:30:09.770Z,17.25
2023-01-30T03:35:07.292Z,15.68
2023-01-30T03:40:08.163Z,16.85
2023-01-30T03:45:06.016Z,12.90
2023-01-30T03:50:03.682Z,15.30
2023-01-30T03:55:00.930Z,12.02
2023-01-30T03:59:58.421Z,11.15
2023-01-30T04:04:56.210Z,21.25
2023-01-30T04:09:54.166Z,14.02
2023-01-30T04:14:51.537Z,13.35
2023-01-30T04:19:48.783Z,15.02
2023-01-30T04:24:46.015Z,16.35
2023-01-30T04:29:43.267Z,13.63
2023-01-30T04:34:40.700Z,19.55
2023-01-30T04:39:38.721Z,10.65
2023-01-30T04:44:36.271Z,18.00
2023-01-30T04:49:33.552Z,15.43
2023-01-30T04:54:30.933Z,16.77
2023-01-30T04:59:29.287Z,13.07
2023-01-30T05:04:31.704Z,11.02
2023-01-30T05:09:29.220Z,19.98
2023-01-30T05:14:29.471Z,30.55
2023-01-30T05:19:27.647Z,18.73
2023-01-30T05:24:25.014Z,35.50
2023-01-30T05:29:22.688Z,28.52
2023-01-30T05:34:20.231Z,25.60
2023-01-30T05:39:17.665Z,24.15
2023-01-30T05:44:15.040Z,34.95
2023-01-30T05:49:12.804Z,39.72
2023-01-30T05:54:10.596Z,29.80
2023-01-30T05:59:09.827Z,35.72
2023-01-30T06:04:07.117Z,29.83
2023-01-30T06:09:04.896Z,40.65
2023-01-30T06:14:02.141Z,30.95
2023-01-30T06:18:59.597Z,31.27
2023-01-30T06:23:56.939Z,37.55
2023-01-30T06:28:54.295Z,38.70
2023-01-30T06:33:51.542Z,36.20
2023-01-30T06:38:48.945Z,38.83
2023-01-30T06:43:46.166Z,41.78
2023-01-30T06:48:44.001Z,34.03
2023-01-30T06:53:41.449Z,43.90
2023-01-30T06:58:44.487Z,37.20
2023-01-30T07:03:41.921Z,42.97
2023-01-30T07:08:40.997Z,46.38
2023-01-30T07:13:38.339Z,39.87
2023-01-30T07:18:35.840Z,40.58
2023-01-30T07:23:33.247Z,44.40
2023-01-30T07:28:30.483Z,60.70
2023-01-30T07:33:27.850Z,42.63
2023-01-30T07:38:25.798Z,41.10
2023-01-30T07:43:23.039Z,43.65
2023-01-30T07:48:20.422Z,45.25
2023-01-30T07:53:21.080Z,44.38
2023-01-30T07:58:18.488Z,43.00
2023-01-30T08:03:17.295Z,34.10
2023-01-30T08:08:15.395Z,41.10
2023-01-30T08:13:12.672Z,34.92
2023-01-30T08:18:10.023Z,45.70
2023-01-30T08:23:07.505Z,40.20
2023-01-30T08:28:05.041Z,38.83
2023-01-30T08:33:02.468Z,36.67
2023-01-30T08:38:00.048Z,50.67
2023-01-30T08:42:57.383Z,41.00
2023-01-30T08:47:58.265Z,38.97
2023-01-30T08:52:55.788Z,36.15
2023-01-30T08:57:57.148Z,27.98
2023-01-30T09:02:56.173Z,32.85
2023-01-30T09:07:53.407Z,34.60
2023-01-30T09:12:50.821Z,29.77
2023-01-30T09:17:48.199Z,41.95
2023-01-30T09:22:45.798Z,32.85
2023-01-30T09:27:44.714Z,32.60
2023-01-30T09:32:42.618Z,26.02
2023-01-30T09:37:46.607Z,27.40
2023-01-30T09:42:52.903Z,21.77
2023-01-30T09:48:05.347Z,24.30
2023-01-30T09:53:17.429Z,27.92
2023-01-30T09:58:21.716Z,31.10
2023-01-30T10:03:34.034Z,31.67
2023-01-30T10:08:55.922Z,29.35
2023-01-30T10:14:23.136Z,23.70
2023-01-30T10:19:41.765Z,20.92
2023-01-30T10:24:53.970Z,24.27
2023-01-30T10:29:57.263Z,16.20
2023-01-30T10:34:58.349Z,21.38
2023-01-30T10:40:32.815Z,25.42
2023-01-30T10:45:40.896Z,16.67
2023-01-30T10:51:01.665Z,28.45
2023-01-30T10:56:20.830Z,30.10
2023-01-30T11:01:45.635Z,19.05
2023-01-30T11:06:43.425Z,20.50
2023-01-30T11:11:51.465Z,26.10
2023-01-30T11:16:52.269Z,16.27
2023-01-30T11:21:54.932Z,17.75
2023-01-30T11:26:53.582Z,13.90
2023-01-30T11:31:52.239Z,19.63
2023-01-30T11:36:50.688Z,20.45
2023-01-30T11:41:53.994Z,16.85
2023-01-30T11:46:51.412Z,19.38
2023-01-30T11:51:52.861Z,21.13
2023-01-30T11:56:55.595Z,17.00
2023-01-30T12:02:01.912Z,14.95
2023-01-30T12:07:27.214Z,15.02
2023-01-30T12:12:35.067Z,16.75
2023-01-30T12:17:46.004Z,17.25
2023-01-30T12:22:59.703Z,18.27
2023-01-30T12:28:22.587Z,15.10
2023-01-30T12:33:26.843Z,23.17
2023-01-30T12:39:01.945Z,13.10
2023-01-30T12:44:08.341Z,15.60
2023-01-30T12:50:18.463Z,15.82
2023-01-30T12:55:22.652Z,13.05
2023-01-30T13:00:31.871Z,17.37
2023-01-30T13:05:51.378Z,19.63
2023-01-30T13:11:11.562Z,14.07
2023-01-30T13:16:20.683Z,16.20
2023-01-30T13:21:29.184Z,14.35
2023-01-30T13:26:36.593Z,15.00
2023-01-30T13:31:42.988Z,17.00
2023-01-30T13:36:43.100Z,12.10
2023-01-30T13:41:45.893Z,18.45
2023-01-30T13:46:44.563Z,13.88
2023-01-30T13:52:02.367Z,12.20
2023-01-30T13:57:11.326Z,9.07
2023-01-30T14:02:16.910Z,12.15
2023-01-30T14:07:32.277Z,9.98
2023-01-30T14:12:54.442Z,10.38
2023-01-30T14:18:19.222Z,12.77
2023-01-30T14:23:34.139Z,13.05
2023-01-30T14:28:31.424Z,11.15
2023-01-30T14:33:33.108Z,12.85
2023-01-30T14:38:40.831Z,11.60
2023-01-30T14:43:44.119Z,11.00
2023-01-30T14:48:53.028Z,17.30
2023-01-30T14:53:50.344Z,10.45
2023-01-30T14:59:02.456Z,16.77
2023-01-30T15:03:59.986Z,14.10
2023-01-30T15:08:57.525Z,13.95
2023-01-30T15:14:07.847Z,15.15
2023-01-30T15:19:42.543Z,13.45
2023-01-30T15:25:27.197Z,13.07
2023-01-30T15:31:09.003Z,10.43
2023-01-30T15:36:39.075Z,16.88
2023-01-30T15:41:42.867Z,12.32
2023-01-30T15:47:01.319Z,12.88
2023-01-30T15:52:04.057Z,13.27
2023-01-30T15:57:01.594Z,11.30
2023-01-30T16:02:16.665Z,13.13
2023-01-30T16:07:24.869Z,14.88
2023-01-30T16:12:32.269Z,12.10
2023-01-30T16:17:32.185Z,14.68
2023-01-30T16:22:34.793Z,14.77
2023-01-30T16:27:35.571Z,17.33
2023-01-30T16:32:37.085Z,23.33
2023-01-30T16:37:34.394Z,22.50
2023-01-30T16:42:32.123Z,26.90
2023-01-30T16:47:31.679Z,30.23
2023-01-30T16:52:46.223Z,28.10
2023-01-30T16:57:50.577Z,14.95
2023-01-30T17:02:58.454Z,28.05
2023-01-30T17:07:57.193Z,17.33
2023-01-30T17:12:55.824Z,29.42
2023-01-30T17:17:53.214Z,28.58
2023-01-30T17:22:53.479Z,26.83
2023-01-30T17:27:50.884Z,36.35
2023-01-30T17:32:50.785Z,33.45
2023-01-30T17:37:59.785Z,19.20
2023-01-30T17:43:01.164Z,22.45
2023-01-30T17:47:58.553Z,29.95
2023-01-30T17:52:55.844Z,24.50
2023-01-30T17:57:54.331Z,32.63
2023-01-30T18:02:52.749Z,32.50
2023-01-30T18:07:50.485Z,27.75
2023-01-30T18:12:47.790Z,42.47
2023-01-30T18:17:47.652Z,42.88
2023-01-30T18:27:47.507Z,44.80
2023-01-30T18:32:52.494Z,42.15
2023-01-30T18:37:51.973Z,53.50
2023-01-30T18:42:49.779Z,44.83
2023-01-30T18:47:47.151Z,63.25
2023-01-30T18:52:44.626Z,38.65
2023-01-30T18:57:41.928Z,46.28
2023-01-30T19:02:41.064Z,41.65
2023-01-30T19:07:38.512Z,38.15
2023-01-30T19:12:54.377Z,37.30
2023-01-30T19:17:51.877Z,28.35
2023-01-30T19:22:49.941Z,38.58
2023-01-30T19:27:47.380Z,24.83
2023-01-30T19:32:44.657Z,30.67
2023-01-30T19:37:41.996Z,31.35
2023-01-30T19:42:43.866Z,27.65
2023-01-30T19:47:41.770Z,27.40
2023-01-30T19:52:38.988Z,35.53
2023-01-30T19:57:36.463Z,26.73
2023-01-30T20:02:33.732Z,24.63
2023-01-30T20:07:34.787Z,33.42
2023-01-30T20:12:35.901Z,37.67
2023-01-30T20:17:33.862Z,39.80
2023-01-30T20:22:31.175Z,33.28
2023-01-30T20:27:28.789Z,32.35
2023-01-30T20:32:26.019Z,28.30
2023-01-30T20:37:23.488Z,29.40
2023-01-30T20:42:23.932Z,39.90
2023-01-30T20:47:23.995Z,30.13
2023-01-30T20:52:21.316Z,28.35
2023-01-30T20:57:18.618Z,35.53
2023-01-30T21:02:18.554Z,25.58
2023-01-30T21:07:15.975Z,37.10
2023-01-30T21:12:13.805Z,30.08
2023-01-30T21:17:11.270Z,37.40
2023-01-30T21:22:10.771Z,45.35
2023-01-30T21:27:08.155Z,33.97
2023-01-30T21:32:05.699Z,36.45
2023-01-30T21:37:22.110Z,42.67
2023-01-30T21:42:39.004Z,25.23
2023-01-30T21:47:36.997Z,39.95
2023-01-30T21:52:34.543Z,37.22
2023-01-30T21:57:32.143Z,27.98
2023-01-30T22:02:29.356Z,32.90
2023-01-30T22:07:26.707Z,24.30
2023-01-30T22:12:25.299Z,31.25
2023-01-30T22:17:22.566Z,30.60
2023-01-30T22:22:20.779Z,36.15
2023-01-30T22:27:18.038Z,33.08
2023-01-30T22:32:15.748Z,35.45
2023-01-30T22:37:13.011Z,23.48
2023-01-30T22:42:10.919Z,28.52
2023-01-30T22:47:08.249Z,30.30
2023-01-30T22:52:05.637Z,27.02
2023-01-30T22:57:02.872Z,31.65
2023-01-30T23:02:00.198Z,30.10
2023-01-30T23:06:57.900Z,24.60
2023-01-30T23:12:16.210Z,32.58
2023-01-30T23:17:32.125Z,25.70
2023-01-30T23:22:29.475Z,36.90
2023-01-30T23:27:27.755Z,37.85
2023-01-30T23:32:25.629Z,24.70
2023-01-30T23:37:45.796Z,26.10
2023-01-30T23:42:48.853Z,23.85
2023-01-30T23:47:46.137Z,30.75
2023-01-30T23:52:44.466Z,16.20
2023-01-30T23:57:41.789Z,38.05
